createdAt,value
2023-04-25T00:00:54.732Z,96780.91
2023-04-25T00:03:22.212Z,96781.91
2023-04-25T00:05:49.184Z,96781.38
2023-04-25T00:08:15.797Z,96782.22
2023-04-25T00:10:42.360Z,96795.00
2023-04-25T00:13:09.262Z,96786.78
2023-04-25T00:15:37.015Z,96780.41
2023-04-25T00:18:03.636Z,96782.25
2023-04-25T00:20:30.980Z,96772.16
2023-04-25T00:22:57.472Z,96774.31
2023-04-25T00:25:24.422Z,96779.38
2023-04-25T00:27:50.968Z,96776.19
2023-04-25T00:30:17.545Z,96773.69
2023-04-25T00:32:44.270Z,96768.47
2023-04-25T00:35:10.954Z,96766.09
2023-04-25T00:37:37.617Z,96769.47
2023-04-25T00:40:07.100Z,96770.09
2023-04-25T00:42:33.639Z,96770.47
2023-04-25T00:45:00.400Z,96766.09
2023-04-25T00:47:26.884Z,96768.31
2023-04-25T00:49:54.318Z,96768.63
2023-04-25T00:52:21.466Z,96766.47
2023-04-25T00:54:48.272Z,96769.16
2023-04-25T00:57:14.803Z,96774.22
2023-04-25T00:59:45.931Z,96776.38
2023-04-25T01:02:12.511Z,96765.13
2023-04-25T01:04:39.770Z,96771.84
2023-04-25T01:07:06.235Z,96763.94
2023-04-25T01:09:33.095Z,96765.78
2023-04-25T01:11:59.815Z,96771.34
2023-04-25T01:14:26.266Z,96764.44
2023-04-25T01:16:54.026Z,96762.88
2023-04-25T01:19:20.926Z,96767.13
2023-04-25T01:21:47.713Z,96757.03
2023-04-25T01:24:15.018Z,96756.00
2023-04-25T01:26:45.953Z,96760.06
2023-04-25T01:29:12.627Z,96764.09
2023-04-25T01:31:39.395Z,96764.38
2023-04-25T01:34:06.238Z,96766.75
2023-04-25T01:36:33.132Z,96774.78
2023-04-25T01:39:01.756Z,96775.75
2023-04-25T01:41:28.488Z,96771.00
2023-04-25T01:43:55.421Z,96765.41
2023-04-25T01:46:22.224Z,96783.63
2023-04-25T01:48:49.219Z,96793.53
2023-04-25T01:51:16.350Z,96791.19
2023-04-25T01:53:43.549Z,96787.84
2023-04-25T01:56:10.109Z,96795.91
2023-04-25T01:58:36.815Z,96780.97
2023-04-25T02:01:08.707Z,96774.59
2023-04-25T02:03:44.419Z,96781.44
2023-04-25T02:06:19.999Z,96782.41
2023-04-25T02:08:48.062Z,96781.16
2023-04-25T02:11:14.787Z,96779.69
2023-04-25T02:13:47.483Z,96780.81
2023-04-25T02:16:34.295Z,96779.38
2023-04-25T02:19:01.855Z,96793.38
2023-04-25T02:21:31.466Z,96805.06
2023-04-25T02:23:58.099Z,96801.47
2023-04-25T02:26:25.158Z,96804.13
2023-04-25T02:28:52.433Z,96804.41
2023-04-25T02:31:19.860Z,96806.53
2023-04-25T02:33:46.554Z,96812.50
2023-04-25T02:36:13.065Z,96817.38
2023-04-25T02:38:39.806Z,96806.38
2023-04-25T02:41:06.362Z,96819.47
2023-04-25T02:43:32.949Z,96812.69
2023-04-25T02:45:59.408Z,96808.59
2023-04-25T02:48:25.932Z,96793.44
2023-04-25T02:50:52.429Z,96798.94
2023-04-25T02:53:18.935Z,96798.03
2023-04-25T02:55:49.483Z,96797.59
2023-04-25T02:58:16.572Z,96793.16
2023-04-25T03:00:46.654Z,96803.94
2023-04-25T03:03:13.401Z,96802.00
2023-04-25T03:05:40.088Z,96798.72
2023-04-25T03:08:07.019Z,96804.41
2023-04-25T03:10:34.646Z,96798.44
2023-04-25T03:13:05.432Z,96803.41
2023-04-25T03:15:32.248Z,96804.31
2023-04-25T03:17:58.756Z,96807.38
2023-04-25T03:20:25.279Z,96808.44
2023-04-25T03:22:52.427Z,96813.50
2023-04-25T03:25:19.038Z,96802.25
2023-04-25T03:27:46.254Z,96798.06
2023-04-25T03:30:12.847Z,96790.78
2023-04-25T03:32:41.158Z,96787.09
2023-04-25T03:35:07.825Z,96781.44
2023-04-25T03:37:35.331Z,96793.44
2023-04-25T03:40:01.974Z,96785.03
2023-04-25T03:42:47.044Z,96783.47
2023-04-25T03:45:13.629Z,96783.94
2023-04-25T03:47:41.177Z,96790.75
2023-04-25T03:50:08.014Z,96791.66
2023-04-25T03:52:34.619Z,96781.44
2023-04-25T03:55:01.133Z,96783.38
2023-04-25T03:57:28.514Z,96796.50
2023-04-25T03:59:55.600Z,96802.34
2023-04-25T04:02:23.392Z,96804.03
2023-04-25T04:04:52.582Z,96797.91
2023-04-25T04:07:19.633Z,96808.28
2023-04-25T04:09:48.099Z,96810.31
2023-04-25T04:12:21.012Z,96810.72
2023-04-25T04:14:47.594Z,96805.72
2023-04-25T04:17:14.116Z,96808.03
2023-04-25T04:19:40.801Z,96812.78
2023-04-25T04:22:13.920Z,96820.00
2023-04-25T04:24:40.864Z,96813.56
2023-04-25T04:27:08.470Z,96822.78
2023-04-25T04:29:59.975Z,96829.50
2023-04-25T04:32:45.885Z,96835.06
2023-04-25T04:35:12.505Z,96832.38
2023-04-25T04:37:40.666Z,96837.03
2023-04-25T04:40:09.836Z,96831.09
2023-04-25T04:42:44.029Z,96821.91
2023-04-25T04:45:26.381Z,96837.00
2023-04-25T04:48:16.122Z,96836.53
2023-04-25T04:50:59.329Z,96837.00
2023-04-25T04:53:45.777Z,96830.34
2023-04-25T04:56:26.325Z,96818.56
2023-04-25T04:58:58.412Z,96816.13
2023-04-25T05:01:57.000Z,96818.09
2023-04-25T05:04:42.219Z,96829.28
2023-04-25T05:07:31.947Z,96817.56
2023-04-25T05:10:07.440Z,96822.53
2023-04-25T05:12:43.208Z,96816.94
2023-04-25T05:15:28.013Z,96817.41
2023-04-25T05:18:14.811Z,96810.53
2023-04-25T05:21:16.579Z,96806.63
2023-04-25T05:23:52.728Z,96813.13
2023-04-25T05:26:54.195Z,96812.28
2023-04-25T05:29:27.634Z,96816.13
2023-04-25T05:32:14.437Z,96813.84
2023-04-25T05:34:41.272Z,96815.41
2023-04-25T05:37:14.359Z,96812.31
2023-04-25T05:39:52.637Z,96809.16
2023-04-25T05:42:33.518Z,96821.25
2023-04-25T05:45:29.297Z,96807.84
2023-04-25T05:48:04.458Z,96813.66
2023-04-25T05:51:03.165Z,96809.38
2023-04-25T05:53:52.683Z,96808.78
2023-04-25T05:56:19.549Z,96800.34
2023-04-25T05:58:51.519Z,96801.59
2023-04-25T06:01:18.009Z,96803.25
2023-04-25T06:03:45.110Z,96800.38
2023-04-25T06:06:14.817Z,96797.38
2023-04-25T06:08:41.698Z,96797.91
2023-04-25T06:11:11.294Z,96792.31
2023-04-25T06:13:37.993Z,96793.50
2023-04-25T06:16:04.801Z,96791.16
2023-04-25T06:18:31.621Z,96791.88
2023-04-25T06:20:58.403Z,96786.50
2023-04-25T06:23:26.042Z,96784.22
2023-04-25T06:25:58.285Z,96782.75
2023-04-25T06:28:26.418Z,96782.78
2023-04-25T06:30:52.933Z,96772.22
2023-04-25T06:33:21.271Z,96772.56
2023-04-25T06:35:48.185Z,96770.44
2023-04-25T06:38:17.846Z,96766.53
2023-04-25T06:40:48.443Z,96757.84
2023-04-25T06:43:15.286Z,96761.38
2023-04-25T06:45:48.653Z,96762.53
2023-04-25T06:48:16.545Z,96764.66
2023-04-25T06:50:43.159Z,96762.50
2023-04-25T06:53:09.953Z,96760.38
2023-04-25T06:55:37.047Z,96751.34
2023-04-25T06:58:12.798Z,96753.25
2023-04-25T07:01:02.125Z,96748.22
2023-04-25T07:03:28.907Z,96738.81
2023-04-25T07:06:02.228Z,96731.91
2023-04-25T07:08:30.005Z,96733.81
2023-04-25T07:10:58.074Z,96734.44
2023-04-25T07:13:24.607Z,96730.66
2023-04-25T07:15:51.164Z,96722.56
2023-04-25T07:18:19.870Z,96721.78
2023-04-25T07:20:47.146Z,96714.25
2023-04-25T07:23:13.643Z,96707.66
2023-04-25T07:25:40.468Z,96701.16
2023-04-25T07:28:07.632Z,96695.06
2023-04-25T07:30:35.762Z,96700.25
2023-04-25T07:33:04.121Z,96703.53
2023-04-25T07:35:30.653Z,96705.63
2023-04-25T07:37:57.326Z,96712.34
2023-04-25T07:40:24.783Z,96718.13
2023-04-25T07:42:56.226Z,96713.69
2023-04-25T07:45:29.819Z,96719.81
2023-04-25T07:47:56.530Z,96720.44
2023-04-25T07:50:24.549Z,96712.13
2023-04-25T07:52:51.094Z,96698.47
2023-04-25T07:55:24.105Z,96705.31
2023-04-25T07:57:59.572Z,96697.09
2023-04-25T08:00:29.662Z,96706.72
2023-04-25T08:03:15.680Z,96700.72
2023-04-25T08:05:42.990Z,96707.56
2023-04-25T08:08:09.933Z,96710.25
2023-04-25T08:10:36.529Z,96706.50
2023-04-25T08:13:03.558Z,96715.63
2023-04-25T08:15:30.336Z,96715.44
2023-04-25T08:17:57.433Z,96718.97
2023-04-25T08:20:23.995Z,96711.94
2023-04-25T08:22:53.153Z,96708.97
2023-04-25T08:25:29.515Z,96710.38
2023-04-25T08:27:57.030Z,96704.53
2023-04-25T08:30:23.820Z,96706.94
2023-04-25T08:32:51.509Z,96703.47
2023-04-25T08:35:40.950Z,96698.81
2023-04-25T08:38:08.050Z,96706.81
2023-04-25T08:40:38.401Z,96708.03
2023-04-25T08:43:12.837Z,96703.88
2023-04-25T08:45:44.031Z,96703.78
2023-04-25T08:48:17.320Z,96710.72
2023-04-25T08:50:46.998Z,96713.03
2023-04-25T08:53:19.854Z,96707.75
2023-04-25T08:55:47.702Z,96711.34
2023-04-25T08:58:14.554Z,96714.03
2023-04-25T09:00:41.623Z,96717.81
2023-04-25T09:03:08.329Z,96712.56
2023-04-25T09:05:35.614Z,96711.53
2023-04-25T09:08:02.897Z,96714.44
2023-04-25T09:10:29.470Z,96709.44
2023-04-25T09:13:11.490Z,96710.19
2023-04-25T09:15:59.056Z,96716.91
2023-04-25T09:18:50.244Z,96709.72
2023-04-25T09:21:17.509Z,96710.81
2023-04-25T09:23:47.833Z,96723.78
2023-04-25T09:26:16.305Z,96713.97
2023-04-25T09:28:44.024Z,96709.00
2023-04-25T09:31:11.171Z,96705.47
2023-04-25T09:33:43.187Z,96704.84
2023-04-25T09:36:12.061Z,96709.41
2023-04-25T09:38:51.641Z,96709.31
2023-04-25T09:41:38.810Z,96702.94
2023-04-25T09:44:05.875Z,96710.63
2023-04-25T09:46:38.842Z,96711.78
2023-04-25T09:49:17.489Z,96711.53
2023-04-25T09:52:20.636Z,96710.22
2023-04-25T09:55:22.373Z,96707.50
2023-04-25T09:57:49.978Z,96710.63
2023-04-25T10:00:17.256Z,96700.16
2023-04-25T10:02:44.774Z,96691.94
2023-04-25T10:05:19.067Z,96691.19
2023-04-25T10:07:45.637Z,96682.72
2023-04-25T10:10:16.788Z,96685.63
2023-04-25T10:12:45.119Z,96675.22
2023-04-25T10:15:11.922Z,96676.84
2023-04-25T10:17:39.566Z,96680.53
2023-04-25T10:20:10.781Z,96672.69
2023-04-25T10:22:39.150Z,96668.44
2023-04-25T10:25:06.221Z,96660.47
2023-04-25T10:27:32.888Z,96656.50
2023-04-25T10:30:04.850Z,96660.59
2023-04-25T10:32:32.375Z,96655.84
2023-04-25T10:34:59.082Z,96645.97
2023-04-25T10:37:25.548Z,96649.88
2023-04-25T10:39:54.231Z,96651.19
2023-04-25T10:42:20.741Z,96654.56
2023-04-25T10:45:02.101Z,96642.63
2023-04-25T10:47:38.157Z,96639.00
2023-04-25T10:50:09.170Z,96628.59
2023-04-25T10:52:35.805Z,96627.97
2023-04-25T10:55:04.664Z,96626.00
2023-04-25T10:57:31.154Z,96613.34
2023-04-25T11:00:10.355Z,96609.72
2023-04-25T11:02:48.094Z,96598.88
2023-04-25T11:05:30.592Z,96610.06
2023-04-25T11:08:07.803Z,96598.19
2023-04-25T11:10:37.652Z,96600.28
2023-04-25T11:13:04.419Z,96600.94
2023-04-25T11:15:31.123Z,96594.97
2023-04-25T11:17:57.742Z,96597.50
2023-04-25T11:20:26.927Z,96588.31
2023-04-25T11:22:53.514Z,96603.78
2023-04-25T11:25:21.128Z,96590.88
2023-04-25T11:27:52.245Z,96589.91
2023-04-25T11:30:19.802Z,96585.19
2023-04-25T11:32:46.531Z,96586.63
2023-04-25T11:35:13.603Z,96586.22
2023-04-25T11:37:41.030Z,96589.34
2023-04-25T11:40:08.319Z,96593.78
2023-04-25T11:42:34.880Z,96591.28
2023-04-25T11:45:01.369Z,96608.41
2023-04-25T11:47:31.546Z,96609.47
2023-04-25T11:50:02.051Z,96617.03
2023-04-25T11:52:41.776Z,96632.66
2023-04-25T11:55:13.718Z,96652.13
2023-04-25T11:57:41.172Z,96657.13
2023-04-25T12:00:09.636Z,96659.38
2023-04-25T12:02:41.270Z,96661.91
2023-04-25T12:05:29.380Z,96669.81
2023-04-25T12:07:56.086Z,96656.72
2023-04-25T12:10:22.887Z,96645.81
2023-04-25T12:12:49.455Z,96646.78
2023-04-25T12:15:23.869Z,96647.28
2023-04-25T12:17:51.411Z,96647.59
2023-04-25T12:20:22.223Z,96646.75
2023-04-25T12:22:49.778Z,96639.97
2023-04-25T12:25:35.032Z,96635.50
2023-04-25T12:28:20.582Z,96635.72
2023-04-25T12:31:04.210Z,96637.72
2023-04-25T12:33:31.976Z,96634.34
2023-04-25T12:35:59.169Z,96634.25
2023-04-25T12:38:26.607Z,96635.88
2023-04-25T12:40:53.363Z,96629.84
2023-04-25T12:43:20.092Z,96628.34
2023-04-25T12:45:51.162Z,96627.00
2023-04-25T12:48:17.903Z,96622.50
2023-04-25T12:50:44.758Z,96620.31
2023-04-25T12:53:12.435Z,96620.69
2023-04-25T12:55:38.868Z,96625.28
2023-04-25T12:58:05.322Z,96620.09
2023-04-25T13:00:32.686Z,96618.25
2023-04-25T13:02:59.552Z,96621.31
2023-04-25T13:05:26.773Z,96622.09
2023-04-25T13:07:53.274Z,96608.22
2023-04-25T13:10:19.755Z,96610.94
2023-04-25T13:12:46.974Z,96610.25
2023-04-25T13:15:13.472Z,96607.63
2023-04-25T13:17:40.029Z,96616.41
2023-04-25T13:20:10.484Z,96616.06
2023-04-25T13:22:38.754Z,96613.50
2023-04-25T13:25:06.670Z,96613.16
2023-04-25T13:27:34.823Z,96605.47
2023-04-25T13:30:02.257Z,96605.19
2023-04-25T13:32:28.763Z,96604.16
2023-04-25T13:34:55.409Z,96598.72
2023-04-25T13:37:24.987Z,96599.13
2023-04-25T13:39:51.936Z,96598.84
2023-04-25T13:42:18.896Z,96601.31
2023-04-25T13:44:45.357Z,96602.53
2023-04-25T13:47:12.173Z,96603.84
2023-04-25T13:49:38.716Z,96598.72
2023-04-25T13:52:05.153Z,96603.03
2023-04-25T13:54:31.620Z,96603.41
2023-04-25T13:57:00.168Z,96595.13
2023-04-25T13:59:26.707Z,96608.94
2023-04-25T14:01:53.334Z,96599.41
2023-04-25T14:04:20.071Z,96599.09
2023-04-25T14:06:46.650Z,96599.22
2023-04-25T14:09:13.557Z,96590.50
2023-04-25T14:11:40.225Z,96591.94
2023-04-25T14:14:06.744Z,96591.84
2023-04-25T14:16:33.368Z,96585.66
2023-04-25T14:18:59.852Z,96585.22
2023-04-25T14:21:26.381Z,96586.31
2023-04-25T14:23:53.052Z,96582.69
2023-04-25T14:26:19.948Z,96586.19
2023-04-25T14:28:46.622Z,96588.31
2023-04-25T14:31:13.152Z,96589.78
2023-04-25T14:33:43.121Z,96591.81
2023-04-25T14:36:09.776Z,96582.50
2023-04-25T14:38:36.217Z,96582.03
2023-04-25T14:41:02.664Z,96580.16
2023-04-25T14:43:29.155Z,96580.56
2023-04-25T14:45:58.269Z,96584.97
2023-04-25T14:48:25.327Z,96585.28
2023-04-25T14:50:51.977Z,96583.16
2023-04-25T14:53:18.425Z,96602.66
2023-04-25T14:55:44.897Z,96610.00
2023-04-25T14:58:11.359Z,96615.03
2023-04-25T15:00:38.316Z,96613.16
2023-04-25T15:03:05.134Z,96616.72
2023-04-25T15:05:31.760Z,96622.16
2023-04-25T15:07:58.282Z,96616.72
2023-04-25T15:10:24.737Z,96620.03
2023-04-25T15:12:51.698Z,96614.84
2023-04-25T15:15:25.922Z,96628.41
2023-04-25T15:17:58.790Z,96619.22
2023-04-25T15:20:26.075Z,96628.00
2023-04-25T15:22:52.732Z,96629.41
2023-04-25T15:25:19.813Z,96620.69
2023-04-25T15:27:49.110Z,96622.59
2023-04-25T15:30:16.693Z,96625.28
2023-04-25T15:32:43.497Z,96631.97
2023-04-25T15:35:10.424Z,96633.69
2023-04-25T15:37:37.548Z,96634.53
2023-04-25T15:40:13.557Z,96623.31
2023-04-25T15:42:41.580Z,96625.94
2023-04-25T15:45:09.129Z,96628.94
2023-04-25T15:47:36.084Z,96633.41
2023-04-25T15:50:02.786Z,96631.13
2023-04-25T15:52:29.543Z,96634.22
2023-04-25T15:54:56.041Z,96628.34
2023-04-25T15:57:22.649Z,96630.06
2023-04-25T15:59:50.058Z,96618.81
2023-04-25T16:02:16.908Z,96612.91
2023-04-25T16:04:43.861Z,96614.56
2023-04-25T16:07:10.487Z,96616.69
2023-04-25T16:09:37.419Z,96616.00
2023-04-25T16:12:04.084Z,96611.50
2023-04-25T16:14:31.339Z,96609.06
2023-04-25T16:17:00.134Z,96616.63
2023-04-25T16:19:27.153Z,96606.91
2023-04-25T16:21:54.116Z,96612.25
2023-04-25T16:24:20.774Z,96607.34
2023-04-25T16:26:47.354Z,96610.56
2023-04-25T16:29:16.784Z,96610.69
2023-04-25T16:31:43.829Z,96612.72
2023-04-25T16:34:10.433Z,96620.19
2023-04-25T16:36:36.850Z,96621.06
2023-04-25T16:39:03.613Z,96612.38
2023-04-25T16:41:30.347Z,96617.94
2023-04-25T16:43:56.847Z,96620.38
2023-04-25T16:46:23.852Z,96623.91
2023-04-25T16:48:50.746Z,96629.56
2023-04-25T16:51:17.652Z,96625.47
2023-04-25T16:53:44.639Z,96634.19
2023-04-25T16:56:11.205Z,96621.94
2023-04-25T16:58:37.833Z,96631.31
2023-04-25T17:01:04.468Z,96635.06
2023-04-25T17:03:34.699Z,96644.50
2023-04-25T17:06:02.264Z,96638.44
2023-04-25T17:08:29.451Z,96638.03
2023-04-25T17:10:56.019Z,96648.00
2023-04-25T17:13:31.040Z,96645.13
2023-04-25T17:15:58.142Z,96656.38
2023-04-25T17:18:24.922Z,96656.38
2023-04-25T17:20:52.308Z,96662.59
2023-04-25T17:23:19.173Z,96675.91
2023-04-25T17:25:45.716Z,96681.31
2023-04-25T17:28:13.036Z,96690.03
2023-04-25T17:30:39.701Z,96694.19
2023-04-25T17:33:07.105Z,96701.91
2023-04-25T17:35:36.760Z,96707.22
2023-04-25T17:38:04.217Z,96715.00
2023-04-25T17:40:31.362Z,96722.31
2023-04-25T17:42:57.832Z,96726.47
2023-04-25T17:45:24.313Z,96723.41
2023-04-25T17:47:50.823Z,96726.19
2023-04-25T17:50:17.437Z,96742.97
2023-04-25T17:52:45.084Z,96747.84
2023-04-25T17:55:11.681Z,96737.00
2023-04-25T17:57:38.176Z,96760.34
2023-04-25T18:00:07.886Z,96748.75
2023-04-25T18:02:38.899Z,96767.25
2023-04-25T18:05:09.302Z,96760.22
2023-04-25T18:07:36.534Z,96767.94
2023-04-25T18:10:05.893Z,96768.31
2023-04-25T18:12:33.744Z,96776.34
2023-04-25T18:15:01.006Z,96781.78
2023-04-25T18:17:27.744Z,96796.13
2023-04-25T18:19:55.386Z,96796.13
2023-04-25T18:22:22.304Z,96803.38
2023-04-25T18:24:49.999Z,96811.91
2023-04-25T18:27:17.330Z,96820.66
2023-04-25T18:29:45.476Z,96823.44
2023-04-25T18:32:12.527Z,96830.63
2023-04-25T18:34:41.540Z,96830.59
2023-04-25T18:37:08.375Z,96841.00
2023-04-25T18:39:34.855Z,96853.63
2023-04-25T18:42:06.487Z,96859.81
2023-04-25T18:44:39.506Z,96858.88
2023-04-25T18:47:10.313Z,96868.94
2023-04-25T18:49:37.718Z,96876.44
2023-04-25T18:52:04.983Z,96878.34
2023-04-25T18:54:32.158Z,96885.88
2023-04-25T18:57:00.971Z,96881.06
2023-04-25T18:59:27.830Z,96890.72
2023-04-25T19:01:54.430Z,96883.13
2023-04-25T19:04:21.468Z,96894.53
2023-04-25T19:06:50.989Z,96894.41
2023-04-25T19:09:18.316Z,96901.78
2023-04-25T19:11:45.363Z,96910.13
2023-04-25T19:14:13.361Z,96912.63
2023-04-25T19:16:39.943Z,96909.13
2023-04-25T19:19:07.659Z,96915.53
2023-04-25T19:21:34.598Z,96918.66
2023-04-25T19:24:02.011Z,96919.38
2023-04-25T19:26:28.580Z,96929.44
2023-04-25T19:29:06.010Z,96925.38
2023-04-25T19:31:33.494Z,96927.09
2023-04-25T19:34:00.292Z,96940.28
2023-04-25T19:36:28.522Z,96929.50
2023-04-25T19:38:55.043Z,96943.38
2023-04-25T19:41:21.617Z,96941.03
2023-04-25T19:43:48.132Z,96933.06
2023-04-25T19:46:14.797Z,96943.09
2023-04-25T19:48:41.478Z,96948.50
2023-04-25T19:51:09.079Z,96943.81
2023-04-25T19:53:35.668Z,96944.81
2023-04-25T19:56:02.884Z,96959.13
2023-04-25T19:58:29.834Z,96955.13
2023-04-25T20:00:57.612Z,96951.59
2023-04-25T20:03:24.349Z,96970.53
2023-04-25T20:05:50.994Z,96974.63
2023-04-25T20:08:17.479Z,96960.16
2023-04-25T20:10:44.088Z,96965.88
2023-04-25T20:13:10.914Z,96976.69
2023-04-25T20:15:37.678Z,96973.63
2023-04-25T20:18:04.578Z,96973.63
2023-04-25T20:20:31.141Z,96973.31
2023-04-25T20:22:57.682Z,96978.66
2023-04-25T20:25:24.293Z,96978.97
2023-04-25T20:27:51.226Z,96978.97
2023-04-25T20:30:18.429Z,96974.41
2023-04-25T20:32:45.254Z,96978.13
2023-04-25T20:35:12.601Z,96984.59
2023-04-25T20:37:39.185Z,96991.69
2023-04-25T20:40:07.524Z,96987.66
2023-04-25T20:42:34.307Z,96997.38
2023-04-25T20:45:00.835Z,96996.63
2023-04-25T20:47:27.541Z,96992.94
2023-04-25T20:49:54.022Z,96996.63
2023-04-25T20:52:20.525Z,97011.38
2023-04-25T20:54:50.681Z,97005.25
2023-04-25T20:57:17.626Z,97001.25
2023-04-25T20:59:44.779Z,97006.84
2023-04-25T21:02:12.321Z,97011.38
2023-04-25T21:04:38.883Z,97017.09
2023-04-25T21:07:05.361Z,97013.97
2023-04-25T21:09:31.823Z,97013.97
2023-04-25T21:11:59.612Z,97020.94
2023-04-25T21:14:26.337Z,97022.94
2023-04-25T21:16:52.803Z,97026.56
2023-04-25T21:19:19.384Z,97022.16
2023-04-25T21:21:45.870Z,97022.44
2023-04-25T21:24:14.147Z,97026.81
2023-04-25T21:26:40.843Z,97036.31
2023-04-25T21:29:07.405Z,97036.00
2023-04-25T21:31:34.005Z,97048.69
2023-04-25T21:34:00.674Z,97043.91
2023-04-25T21:36:27.803Z,97048.41
2023-04-25T21:38:54.562Z,97040.88
2023-04-25T21:41:22.524Z,97052.63
2023-04-25T21:43:49.026Z,97045.09
2023-04-25T21:46:23.540Z,97048.25
2023-04-25T21:48:51.577Z,97059.75
2023-04-25T21:51:18.576Z,97055.06
2023-04-25T21:53:45.078Z,97060.13
2023-04-25T21:56:12.387Z,97067.59
2023-04-25T21:58:38.874Z,97065.28
2023-04-25T22:01:05.436Z,97065.63
2023-04-25T22:03:32.762Z,97070.34
2023-04-25T22:05:59.417Z,97082.41
2023-04-25T22:08:25.962Z,97075.50
2023-04-25T22:10:53.243Z,97083.19
2023-04-25T22:13:20.196Z,97095.63
2023-04-25T22:15:48.549Z,97088.03
2023-04-25T22:18:16.292Z,97094.75
2023-04-25T22:20:44.202Z,97090.72
2023-04-25T22:23:11.976Z,97088.41
2023-04-25T22:25:38.681Z,97093.16
2023-04-25T22:28:05.284Z,97093.50
2023-04-25T22:30:32.343Z,97094.84
2023-04-25T22:32:58.859Z,97099.50
2023-04-25T22:35:25.453Z,97097.22
2023-04-25T22:37:51.965Z,97096.38
2023-04-25T22:40:18.436Z,97098.28
2023-04-25T22:42:44.948Z,97098.47
2023-04-25T22:45:12.433Z,97101.31
2023-04-25T22:47:39.534Z,97100.34
2023-04-25T22:50:08.475Z,97100.91
2023-04-25T22:52:35.090Z,97100.09
2023-04-25T22:55:03.113Z,97102.78
2023-04-25T22:57:29.856Z,97113.81
2023-04-25T22:59:56.488Z,97103.25
2023-04-25T23:02:25.006Z,97110.78
2023-04-25T23:04:53.235Z,97110.25
2023-04-25T23:07:20.136Z,97110.53
2023-04-25T23:09:46.686Z,97117.13
2023-04-25T23:12:13.182Z,97122.53
2023-04-25T23:14:39.719Z,97120.84
2023-04-25T23:17:06.693Z,97124.84
2023-04-25T23:19:34.364Z,97132.78
2023-04-25T23:22:00.976Z,97126.41
2023-04-25T23:24:27.508Z,97135.81
2023-04-25T23:26:53.984Z,97139.34
2023-04-25T23:29:20.994Z,97128.66
2023-04-25T23:31:47.438Z,97136.56
2023-04-25T23:34:13.925Z,97141.03
2023-04-25T23:36:40.423Z,97135.09
2023-04-25T23:39:09.305Z,97137.66
2023-04-25T23:41:35.782Z,97136.16
2023-04-25T23:44:03.466Z,97143.03
2023-04-25T23:46:30.968Z,97137.31
2023-04-25T23:48:57.705Z,97139.59
2023-04-25T23:51:25.229Z,97148.38
2023-04-25T23:53:51.855Z,97143.19
2023-04-25T23:56:18.354Z,97153.25
2023-04-25T23:58:44.795Z,97144.13
